sensor_id;sensor_type;location;lat;lon;timestamp;P1;durP1;ratioP1;P2;durP2;ratioP2
60488;SDS011;46331;49.252;8.904;2022-07-29T00:00:14;6.60;;;3.70;;
60488;SDS011;46331;49.252;8.904;2022-07-29T00:02:40;6.40;;;3.78;;
60488;SDS011;46331;49.252;8.904;2022-07-29T00:05:06;5.07;;;3.70;;
60488;SDS011;46331;49.252;8.904;2022-07-29T00:07:33;6.95;;;4.43;;
60488;SDS011;46331;49.252;8.904;2022-07-29T00:09:59;6.45;;;4.05;;
60488;SDS011;46331;49.252;8.904;2022-07-29T00:12:24;5.40;;;3.58;;
60488;SDS011;46331;49.252;8.904;2022-07-29T00:14:50;5.43;;;3.78;;
60488;SDS011;46331;49.252;8.904;2022-07-29T00:17:16;5.00;;;3.58;;
60488;SDS011;46331;49.252;8.904;2022-07-29T00:19:41;6.05;;;4.20;;
60488;SDS011;46331;49.252;8.904;2022-07-29T00:22:07;5.40;;;3.92;;
60488;SDS011;46331;49.252;8.904;2022-07-29T00:24:33;5.90;;;4.20;;
60488;SDS011;46331;49.252;8.904;2022-07-29T00:26:58;5.15;;;3.78;;
60488;SDS011;46331;49.252;8.904;2022-07-29T00:29:24;5.90;;;3.80;;
60488;SDS011;46331;49.252;8.904;2022-07-29T00:31:49;7.18;;;4.00;;
60488;SDS011;46331;49.252;8.904;2022-07-29T00:34:15;5.88;;;4.07;;
60488;SDS011;46331;49.252;8.904;2022-07-29T00:37:00;6.20;;;4.00;;
60488;SDS011;46331;49.252;8.904;2022-07-29T00:39:25;6.50;;;4.15;;
60488;SDS011;46331;49.252;8.904;2022-07-29T00:41:51;6.88;;;4.22;;
60488;SDS011;46331;49.252;8.904;2022-07-29T00:44:16;5.93;;;4.18;;
60488;SDS011;46331;49.252;8.904;2022-07-29T00:46:42;6.57;;;4.03;;
60488;SDS011;46331;49.252;8.904;2022-07-29T00:49:08;5.55;;;4.00;;
60488;SDS011;46331;49.252;8.904;2022-07-29T00:51:37;7.63;;;4.60;;
60488;SDS011;46331;49.252;8.904;2022-07-29T00:54:03;6.05;;;4.00;;
60488;SDS011;46331;49.252;8.904;2022-07-29T00:56:30;5.95;;;4.38;;
60488;SDS011;46331;49.252;8.904;2022-07-29T00:58:56;6.90;;;4.03;;
60488;SDS011;46331;49.252;8.904;2022-07-29T01:01:22;5.68;;;4.18;;
60488;SDS011;46331;49.252;8.904;2022-07-29T01:03:48;5.75;;;4.28;;
60488;SDS011;46331;49.252;8.904;2022-07-29T01:06:15;6.95;;;4.43;;
60488;SDS011;46331;49.252;8.904;2022-07-29T01:08:42;6.13;;;4.15;;
60488;SDS011;46331;49.252;8.904;2022-07-29T01:11:08;6.18;;;4.20;;
60488;SDS011;46331;49.252;8.904;2022-07-29T01:13:34;5.93;;;4.07;;
60488;SDS011;46331;49.252;8.904;2022-07-29T01:16:07;5.90;;;4.53;;
60488;SDS011;46331;49.252;8.904;2022-07-29T01:18:39;6.82;;;4.10;;
60488;SDS011;46331;49.252;8.904;2022-07-29T01:29:03;6.18;;;4.05;;
60488;SDS011;46331;49.252;8.904;2022-07-29T01:31:52;7.82;;;4.10;;
60488;SDS011;46331;49.252;8.904;2022-07-29T01:34:25;5.47;;;4.07;;
60488;SDS011;46331;49.252;8.904;2022-07-29T01:39:55;6.28;;;4.15;;
60488;SDS011;46331;49.252;8.904;2022-07-29T01:44:59;6.35;;;4.20;;
60488;SDS011;46331;49.252;8.904;2022-07-29T01:47:33;6.47;;;4.38;;
60488;SDS011;46331;49.252;8.904;2022-07-29T01:50:05;7.43;;;4.65;;
60488;SDS011;46331;49.252;8.904;2022-07-29T01:55:32;6.05;;;4.20;;
60488;SDS011;46331;49.252;8.904;2022-07-29T01:58:03;6.93;;;4.10;;
60488;SDS011;46331;49.252;8.904;2022-07-29T02:00:31;5.90;;;4.43;;
60488;SDS011;46331;49.252;8.904;2022-07-29T02:03:02;5.78;;;4.18;;
60488;SDS011;46331;49.252;8.904;2022-07-29T02:05:32;6.22;;;4.43;;
60488;SDS011;46331;49.252;8.904;2022-07-29T02:08:01;7.53;;;4.38;;
60488;SDS011;46331;49.252;8.904;2022-07-29T02:10:30;6.75;;;4.50;;
60488;SDS011;46331;49.252;8.904;2022-07-29T02:12:57;5.82;;;4.28;;
60488;SDS011;46331;49.252;8.904;2022-07-29T02:15:24;5.40;;;4.28;;
60488;SDS011;46331;49.252;8.904;2022-07-29T02:18:00;6.22;;;4.25;;
60488;SDS011;46331;49.252;8.904;2022-07-29T02:20:28;5.93;;;4.32;;
60488;SDS011;46331;49.252;8.904;2022-07-29T02:22:55;7.80;;;4.63;;
60488;SDS011;46331;49.252;8.904;2022-07-29T02:25:23;8.27;;;4.82;;
60488;SDS011;46331;49.252;8.904;2022-07-29T02:27:50;7.50;;;4.75;;
60488;SDS011;46331;49.252;8.904;2022-07-29T02:30:17;6.78;;;4.55;;
60488;SDS011;46331;49.252;8.904;2022-07-29T02:32:46;5.95;;;3.97;;
60488;SDS011;46331;49.252;8.904;2022-07-29T02:35:34;6.63;;;4.70;;
60488;SDS011;46331;49.252;8.904;2022-07-29T02:38:01;7.82;;;4.72;;
60488;SDS011;46331;49.252;8.904;2022-07-29T02:40:46;6.60;;;4.25;;
60488;SDS011;46331;49.252;8.904;2022-07-29T02:43:15;5.78;;;4.32;;
60488;SDS011;46331;49.252;8.904;2022-07-29T02:45:42;6.10;;;4.00;;
60488;SDS011;46331;49.252;8.904;2022-07-29T02:48:13;6.70;;;4.53;;
60488;SDS011;46331;49.252;8.904;2022-07-29T02:50:48;6.70;;;4.47;;
60488;SDS011;46331;49.252;8.904;2022-07-29T02:53:22;6.90;;;4.65;;
60488;SDS011;46331;49.252;8.904;2022-07-29T02:55:55;7.47;;;4.72;;
60488;SDS011;46331;49.252;8.904;2022-07-29T02:58:27;6.83;;;4.50;;
60488;SDS011;46331;49.252;8.904;2022-07-29T03:01:02;6.72;;;4.60;;
60488;SDS011;46331;49.252;8.904;2022-07-29T03:03:34;6.07;;;4.30;;
60488;SDS011;46331;49.252;8.904;2022-07-29T03:06:02;6.20;;;4.50;;
60488;SDS011;46331;49.252;8.904;2022-07-29T03:08:30;5.28;;;4.20;;
60488;SDS011;46331;49.252;8.904;2022-07-29T03:10:57;6.72;;;4.38;;
60488;SDS011;46331;49.252;8.904;2022-07-29T03:13:24;6.30;;;4.07;;
60488;SDS011;46331;49.252;8.904;2022-07-29T03:15:50;8.48;;;4.70;;
60488;SDS011;46331;49.252;8.904;2022-07-29T03:18:16;5.93;;;4.32;;
60488;SDS011;46331;49.252;8.904;2022-07-29T03:20:42;5.60;;;4.60;;
60488;SDS011;46331;49.252;8.904;2022-07-29T03:23:08;5.70;;;4.30;;
60488;SDS011;46331;49.252;8.904;2022-07-29T03:25:33;6.50;;;4.43;;
60488;SDS011;46331;49.252;8.904;2022-07-29T03:28:00;6.78;;;4.28;;
60488;SDS011;46331;49.252;8.904;2022-07-29T03:30:31;5.40;;;4.35;;
60488;SDS011;46331;49.252;8.904;2022-07-29T03:32:56;6.38;;;4.53;;
60488;SDS011;46331;49.252;8.904;2022-07-29T03:35:22;6.18;;;4.20;;
60488;SDS011;46331;49.252;8.904;2022-07-29T03:37:48;5.82;;;4.50;;
60488;SDS011;46331;49.252;8.904;2022-07-29T03:40:17;6.38;;;4.50;;
60488;SDS011;46331;49.252;8.904;2022-07-29T03:42:45;6.88;;;4.40;;
60488;SDS011;46331;49.252;8.904;2022-07-29T03:45:12;6.70;;;4.50;;
60488;SDS011;46331;49.252;8.904;2022-07-29T03:47:42;5.88;;;4.40;;
60488;SDS011;46331;49.252;8.904;2022-07-29T03:50:12;6.10;;;4.40;;
60488;SDS011;46331;49.252;8.904;2022-07-29T03:52:40;6.60;;;4.22;;
60488;SDS011;46331;49.252;8.904;2022-07-29T03:55:07;7.65;;;5.43;;
60488;SDS011;46331;49.252;8.904;2022-07-29T03:57:34;6.25;;;4.80;;
60488;SDS011;46331;49.252;8.904;2022-07-29T04:00:02;9.27;;;6.10;;
60488;SDS011;46331;49.252;8.904;2022-07-29T04:02:29;8.82;;;5.60;;
60488;SDS011;46331;49.252;8.904;2022-07-29T04:04:56;8.25;;;5.40;;
60488;SDS011;46331;49.252;8.904;2022-07-29T04:07:22;7.10;;;5.20;;
60488;SDS011;46331;49.252;8.904;2022-07-29T04:09:47;6.05;;;4.63;;
60488;SDS011;46331;49.252;8.904;2022-07-29T04:12:13;7.15;;;4.93;;
60488;SDS011;46331;49.252;8.904;2022-07-29T04:14:44;5.65;;;4.53;;
60488;SDS011;46331;49.252;8.904;2022-07-29T04:17:10;6.60;;;4.57;;
60488;SDS011;46331;49.252;8.904;2022-07-29T04:19:36;6.43;;;4.45;;
60488;SDS011;46331;49.252;8.904;2022-07-29T04:22:02;6.00;;;4.88;;
60488;SDS011;46331;49.252;8.904;2022-07-29T04:24:28;6.72;;;4.70;;
60488;SDS011;46331;49.252;8.904;2022-07-29T04:26:53;7.47;;;5.00;;
60488;SDS011;46331;49.252;8.904;2022-07-29T04:29:19;6.68;;;4.50;;
60488;SDS011;46331;49.252;8.904;2022-07-29T04:31:45;6.72;;;4.53;;
60488;SDS011;46331;49.252;8.904;2022-07-29T04:34:11;6.53;;;4.43;;
60488;SDS011;46331;49.252;8.904;2022-07-29T04:36:37;6.90;;;4.40;;
60488;SDS011;46331;49.252;8.904;2022-07-29T04:39:03;7.25;;;4.63;;
60488;SDS011;46331;49.252;8.904;2022-07-29T04:41:29;7.68;;;4.78;;
60488;SDS011;46331;49.252;8.904;2022-07-29T04:43:57;5.55;;;4.10;;
60488;SDS011;46331;49.252;8.904;2022-07-29T04:46:22;6.55;;;4.43;;
60488;SDS011;46331;49.252;8.904;2022-07-29T04:48:48;6.30;;;4.55;;
60488;SDS011;46331;49.252;8.904;2022-07-29T04:51:15;6.28;;;4.30;;
60488;SDS011;46331;49.252;8.904;2022-07-29T04:53:41;5.60;;;4.13;;
60488;SDS011;46331;49.252;8.904;2022-07-29T04:56:07;6.03;;;4.10;;
60488;SDS011;46331;49.252;8.904;2022-07-29T04:58:35;6.38;;;4.30;;
60488;SDS011;46331;49.252;8.904;2022-07-29T05:01:01;7.60;;;4.53;;
60488;SDS011;46331;49.252;8.904;2022-07-29T05:03:27;7.35;;;5.00;;
60488;SDS011;46331;49.252;8.904;2022-07-29T05:06:03;6.55;;;4.28;;
60488;SDS011;46331;49.252;8.904;2022-07-29T05:08:29;5.85;;;4.05;;
60488;SDS011;46331;49.252;8.904;2022-07-29T05:10:54;6.30;;;4.38;;
60488;SDS011;46331;49.252;8.904;2022-07-29T05:13:20;7.28;;;4.15;;
60488;SDS011;46331;49.252;8.904;2022-07-29T05:15:45;5.65;;;4.05;;
60488;SDS011;46331;49.252;8.904;2022-07-29T05:18:31;6.63;;;4.10;;
60488;SDS011;46331;49.252;8.904;2022-07-29T05:20:57;7.25;;;4.07;;
60488;SDS011;46331;49.252;8.904;2022-07-29T05:23:22;5.43;;;3.80;;
60488;SDS011;46331;49.252;8.904;2022-07-29T05:25:48;6.85;;;4.13;;
60488;SDS011;46331;49.252;8.904;2022-07-29T05:28:13;5.78;;;4.07;;
60488;SDS011;46331;49.252;8.904;2022-07-29T05:30:39;5.70;;;4.10;;
60488;SDS011;46331;49.252;8.904;2022-07-29T05:33:04;6.63;;;3.72;;
60488;SDS011;46331;49.252;8.904;2022-07-29T05:35:30;5.07;;;4.00;;
60488;SDS011;46331;49.252;8.904;2022-07-29T05:37:56;6.55;;;3.80;;
60488;SDS011;46331;49.252;8.904;2022-07-29T05:40:21;5.25;;;3.85;;
60488;SDS011;46331;49.252;8.904;2022-07-29T05:42:47;7.75;;;4.50;;
60488;SDS011;46331;49.252;8.904;2022-07-29T05:45:12;5.97;;;3.88;;
60488;SDS011;46331;49.252;8.904;2022-07-29T05:47:38;5.75;;;3.80;;
60488;SDS011;46331;49.252;8.904;2022-07-29T05:50:04;6.85;;;3.90;;
60488;SDS011;46331;49.252;8.904;2022-07-29T05:52:30;6.07;;;4.00;;
60488;SDS011;46331;49.252;8.904;2022-07-29T05:54:55;7.10;;;4.30;;
60488;SDS011;46331;49.252;8.904;2022-07-29T05:57:22;6.32;;;3.95;;
60488;SDS011;46331;49.252;8.904;2022-07-29T05:59:49;6.57;;;3.70;;
60488;SDS011;46331;49.252;8.904;2022-07-29T06:02:15;6.70;;;3.70;;
60488;SDS011;46331;49.252;8.904;2022-07-29T06:04:41;7.05;;;3.83;;
60488;SDS011;46331;49.252;8.904;2022-07-29T06:07:25;6.28;;;3.80;;
60488;SDS011;46331;49.252;8.904;2022-07-29T06:09:50;6.88;;;3.67;;
60488;SDS011;46331;49.252;8.904;2022-07-29T06:12:16;5.90;;;3.75;;
60488;SDS011;46331;49.252;8.904;2022-07-29T06:14:41;5.68;;;3.85;;
60488;SDS011;46331;49.252;8.904;2022-07-29T06:17:07;5.35;;;3.60;;
60488;SDS011;46331;49.252;8.904;2022-07-29T06:19:35;5.43;;;3.90;;
60488;SDS011;46331;49.252;8.904;2022-07-29T06:22:01;5.43;;;3.75;;
60488;SDS011;46331;49.252;8.904;2022-07-29T06:24:27;6.05;;;4.10;;
60488;SDS011;46331;49.252;8.904;2022-07-29T06:26:52;7.13;;;4.28;;
60488;SDS011;46331;49.252;8.904;2022-07-29T06:29:18;6.10;;;4.20;;
60488;SDS011;46331;49.252;8.904;2022-07-29T06:31:43;6.82;;;4.22;;
60488;SDS011;46331;49.252;8.904;2022-07-29T06:34:09;5.38;;;4.00;;
60488;SDS011;46331;49.252;8.904;2022-07-29T06:36:35;5.57;;;4.00;;
60488;SDS011;46331;49.252;8.904;2022-07-29T06:39:03;5.68;;;3.97;;
60488;SDS011;46331;49.252;8.904;2022-07-29T06:41:30;5.05;;;3.60;;
60488;SDS011;46331;49.252;8.904;2022-07-29T06:44:00;5.63;;;4.00;;
60488;SDS011;46331;49.252;8.904;2022-07-29T06:46:25;5.53;;;3.90;;
60488;SDS011;46331;49.252;8.904;2022-07-29T06:48:52;5.75;;;4.15;;
60488;SDS011;46331;49.252;8.904;2022-07-29T06:51:18;6.22;;;3.97;;
60488;SDS011;46331;49.252;8.904;2022-07-29T06:53:44;6.13;;;3.95;;
60488;SDS011;46331;49.252;8.904;2022-07-29T06:56:10;5.88;;;3.75;;
60488;SDS011;46331;49.252;8.904;2022-07-29T06:58:37;6.00;;;3.80;;
60488;SDS011;46331;49.252;8.904;2022-07-29T07:01:04;5.00;;;3.70;;
60488;SDS011;46331;49.252;8.904;2022-07-29T07:03:31;5.43;;;3.70;;
60488;SDS011;46331;49.252;8.904;2022-07-29T07:05:57;5.57;;;3.75;;
60488;SDS011;46331;49.252;8.904;2022-07-29T07:08:23;5.70;;;3.63;;
60488;SDS011;46331;49.252;8.904;2022-07-29T07:10:49;5.82;;;3.90;;
60488;SDS011;46331;49.252;8.904;2022-07-29T07:13:16;5.45;;;3.72;;
60488;SDS011;46331;49.252;8.904;2022-07-29T07:15:42;6.85;;;4.07;;
60488;SDS011;46331;49.252;8.904;2022-07-29T07:18:09;5.88;;;3.80;;
60488;SDS011;46331;49.252;8.904;2022-07-29T07:20:35;8.95;;;4.38;;
60488;SDS011;46331;49.252;8.904;2022-07-29T07:23:01;6.10;;;4.43;;
60488;SDS011;46331;49.252;8.904;2022-07-29T07:25:26;6.53;;;4.20;;
60488;SDS011;46331;49.252;8.904;2022-07-29T07:27:52;5.85;;;4.43;;
60488;SDS011;46331;49.252;8.904;2022-07-29T07:30:18;6.82;;;4.35;;
60488;SDS011;46331;49.252;8.904;2022-07-29T07:32:43;6.28;;;3.95;;
60488;SDS011;46331;49.252;8.904;2022-07-29T07:35:09;7.18;;;3.80;;
60488;SDS011;46331;49.252;8.904;2022-07-29T07:37:35;6.93;;;3.90;;
60488;SDS011;46331;49.252;8.904;2022-07-29T07:40:01;7.43;;;3.58;;
60488;SDS011;46331;49.252;8.904;2022-07-29T07:42:28;5.28;;;3.50;;
60488;SDS011;46331;49.252;8.904;2022-07-29T07:44:54;5.18;;;3.92;;
60488;SDS011;46331;49.252;8.904;2022-07-29T07:47:19;5.78;;;3.50;;
60488;SDS011;46331;49.252;8.904;2022-07-29T07:49:46;5.38;;;3.70;;
60488;SDS011;46331;49.252;8.904;2022-07-29T07:52:13;6.80;;;3.80;;
60488;SDS011;46331;49.252;8.904;2022-07-29T07:54:39;6.55;;;4.20;;
60488;SDS011;46331;49.252;8.904;2022-07-29T07:57:04;6.72;;;4.15;;
60488;SDS011;46331;49.252;8.904;2022-07-29T07:59:30;7.88;;;4.20;;
60488;SDS011;46331;49.252;8.904;2022-07-29T08:01:56;7.65;;;4.32;;
60488;SDS011;46331;49.252;8.904;2022-07-29T08:04:21;6.03;;;3.88;;
60488;SDS011;46331;49.252;8.904;2022-07-29T08:06:48;6.13;;;3.78;;
60488;SDS011;46331;49.252;8.904;2022-07-29T08:09:15;5.97;;;3.75;;
60488;SDS011;46331;49.252;8.904;2022-07-29T08:11:40;5.82;;;3.92;;
60488;SDS011;46331;49.252;8.904;2022-07-29T08:14:06;5.30;;;3.90;;
60488;SDS011;46331;49.252;8.904;2022-07-29T08:16:31;5.70;;;3.53;;
60488;SDS011;46331;49.252;8.904;2022-07-29T08:18:57;5.95;;;3.72;;
60488;SDS011;46331;49.252;8.904;2022-07-29T08:21:23;6.43;;;4.05;;
60488;SDS011;46331;49.252;8.904;2022-07-29T08:23:50;5.82;;;4.45;;
60488;SDS011;46331;49.252;8.904;2022-07-29T08:26:21;5.22;;;4.20;;
60488;SDS011;46331;49.252;8.904;2022-07-29T08:28:47;6.43;;;4.10;;
60488;SDS011;46331;49.252;8.904;2022-07-29T08:31:15;7.22;;;4.10;;
60488;SDS011;46331;49.252;8.904;2022-07-29T08:33:42;6.95;;;4.57;;
60488;SDS011;46331;49.252;8.904;2022-07-29T08:36:07;6.63;;;4.47;;
60488;SDS011;46331;49.252;8.904;2022-07-29T08:38:33;6.47;;;4.00;;
60488;SDS011;46331;49.252;8.904;2022-07-29T08:41:00;5.82;;;3.92;;
60488;SDS011;46331;49.252;8.904;2022-07-29T08:43:29;6.35;;;4.10;;
60488;SDS011;46331;49.252;8.904;2022-07-29T08:45:55;7.00;;;4.60;;
60488;SDS011;46331;49.252;8.904;2022-07-29T08:48:22;5.65;;;4.10;;
60488;SDS011;46331;49.252;8.904;2022-07-29T08:50:56;5.82;;;4.25;;
60488;SDS011;46331;49.252;8.904;2022-07-29T08:53:23;6.28;;;4.30;;
60488;SDS011;46331;49.252;8.904;2022-07-29T08:55:51;7.25;;;4.30;;
60488;SDS011;46331;49.252;8.904;2022-07-29T08:58:18;6.30;;;4.38;;
60488;SDS011;46331;49.252;8.904;2022-07-29T09:00:45;7.90;;;4.80;;
60488;SDS011;46331;49.252;8.904;2022-07-29T09:03:17;6.25;;;4.68;;
60488;SDS011;46331;49.252;8.904;2022-07-29T09:05:45;5.53;;;4.60;;
60488;SDS011;46331;49.252;8.904;2022-07-29T09:08:12;5.97;;;4.70;;
60488;SDS011;46331;49.252;8.904;2022-07-29T09:10:39;5.72;;;4.05;;
60488;SDS011;46331;49.252;8.904;2022-07-29T09:13:05;6.35;;;4.30;;
60488;SDS011;46331;49.252;8.904;2022-07-29T09:15:57;5.88;;;4.63;;
60488;SDS011;46331;49.252;8.904;2022-07-29T09:21:09;6.97;;;4.35;;
60488;SDS011;46331;49.252;8.904;2022-07-29T09:26:27;7.93;;;4.50;;
60488;SDS011;46331;49.252;8.904;2022-07-29T09:28:54;5.97;;;4.20;;
60488;SDS011;46331;49.252;8.904;2022-07-29T09:31:26;6.22;;;4.10;;
60488;SDS011;46331;49.252;8.904;2022-07-29T09:33:58;6.05;;;4.50;;
60488;SDS011;46331;49.252;8.904;2022-07-29T09:36:25;6.13;;;4.40;;
60488;SDS011;46331;49.252;8.904;2022-07-29T09:39:00;6.68;;;4.60;;
60488;SDS011;46331;49.252;8.904;2022-07-29T09:41:27;6.28;;;4.30;;
60488;SDS011;46331;49.252;8.904;2022-07-29T09:43:57;6.32;;;4.60;;
60488;SDS011;46331;49.252;8.904;2022-07-29T09:46:23;6.90;;;4.90;;
60488;SDS011;46331;49.252;8.904;2022-07-29T09:49:09;5.75;;;4.30;;
60488;SDS011;46331;49.252;8.904;2022-07-29T09:51:38;6.88;;;4.93;;
60488;SDS011;46331;49.252;8.904;2022-07-29T09:54:23;6.55;;;5.05;;
60488;SDS011;46331;49.252;8.904;2022-07-29T09:56:48;7.88;;;5.13;;
60488;SDS011;46331;49.252;8.904;2022-07-29T09:59:14;8.75;;;5.00;;
60488;SDS011;46331;49.252;8.904;2022-07-29T10:01:40;7.20;;;4.60;;
60488;SDS011;46331;49.252;8.904;2022-07-29T10:04:06;5.50;;;4.65;;
60488;SDS011;46331;49.252;8.904;2022-07-29T10:06:32;5.70;;;4.30;;
60488;SDS011;46331;49.252;8.904;2022-07-29T10:09:10;6.57;;;4.80;;
60488;SDS011;46331;49.252;8.904;2022-07-29T10:14:04;6.75;;;4.60;;
60488;SDS011;46331;49.252;8.904;2022-07-29T10:16:30;5.45;;;4.53;;
60488;SDS011;46331;49.252;8.904;2022-07-29T10:18:59;6.00;;;4.40;;
60488;SDS011;46331;49.252;8.904;2022-07-29T10:21:26;5.57;;;4.50;;
60488;SDS011;46331;49.252;8.904;2022-07-29T10:23:52;5.95;;;4.28;;
60488;SDS011;46331;49.252;8.904;2022-07-29T10:26:19;6.65;;;4.70;;
60488;SDS011;46331;49.252;8.904;2022-07-29T10:28:45;5.65;;;4.30;;
60488;SDS011;46331;49.252;8.904;2022-07-29T10:31:25;5.80;;;4.90;;
60488;SDS011;46331;49.252;8.904;2022-07-29T10:34:04;5.43;;;4.00;;
60488;SDS011;46331;49.252;8.904;2022-07-29T10:36:57;5.40;;;4.20;;
60488;SDS011;46331;49.252;8.904;2022-07-29T10:42:23;5.13;;;3.97;;
60488;SDS011;46331;49.252;8.904;2022-07-29T10:44:51;5.50;;;4.30;;
60488;SDS011;46331;49.252;8.904;2022-07-29T10:47:24;6.35;;;4.20;;
60488;SDS011;46331;49.252;8.904;2022-07-29T10:49:57;7.00;;;4.88;;
60488;SDS011;46331;49.252;8.904;2022-07-29T10:52:24;6.60;;;4.55;;
60488;SDS011;46331;49.252;8.904;2022-07-29T10:55:12;6.05;;;4.60;;
60488;SDS011;46331;49.252;8.904;2022-07-29T10:58:11;6.07;;;4.25;;
60488;SDS011;46331;49.252;8.904;2022-07-29T11:00:37;5.72;;;4.13;;
60488;SDS011;46331;49.252;8.904;2022-07-29T11:03:03;6.93;;;4.70;;
60488;SDS011;46331;49.252;8.904;2022-07-29T11:05:29;6.78;;;4.53;;
60488;SDS011;46331;49.252;8.904;2022-07-29T11:08:29;5.65;;;4.40;;
60488;SDS011;46331;49.252;8.904;2022-07-29T11:10:49;5.70;;;4.53;;
60488;SDS011;46331;49.252;8.904;2022-07-29T11:16:20;5.13;;;3.97;;
60488;SDS011;46331;49.252;8.904;2022-07-29T11:21:40;4.90;;;4.00;;
60488;SDS011;46331;49.252;8.904;2022-07-29T11:24:42;5.38;;;4.30;;
60488;SDS011;46331;49.252;8.904;2022-07-29T11:27:14;6.25;;;4.43;;
60488;SDS011;46331;49.252;8.904;2022-07-29T11:30:02;5.68;;;4.30;;
60488;SDS011;46331;49.252;8.904;2022-07-29T11:32:37;5.72;;;4.05;;
60488;SDS011;46331;49.252;8.904;2022-07-29T11:35:17;5.18;;;4.03;;
60488;SDS011;46331;49.252;8.904;2022-07-29T11:41:34;5.90;;;4.10;;
60488;SDS011;46331;49.252;8.904;2022-07-29T11:43:51;5.47;;;4.07;;
60488;SDS011;46331;49.252;8.904;2022-07-29T11:49:10;5.63;;;4.55;;
60488;SDS011;46331;49.252;8.904;2022-07-29T11:51:36;5.47;;;4.45;;
60488;SDS011;46331;49.252;8.904;2022-07-29T11:54:03;6.75;;;4.50;;
60488;SDS011;46331;49.252;8.904;2022-07-29T11:56:30;5.55;;;4.10;;
60488;SDS011;46331;49.252;8.904;2022-07-29T11:59:06;6.00;;;4.10;;
60488;SDS011;46331;49.252;8.904;2022-07-29T12:01:34;5.32;;;3.67;;
60488;SDS011;46331;49.252;8.904;2022-07-29T12:04:07;4.75;;;3.67;;
60488;SDS011;46331;49.252;8.904;2022-07-29T12:06:33;5.70;;;4.15;;
60488;SDS011;46331;49.252;8.904;2022-07-29T12:09:00;5.20;;;4.10;;
60488;SDS011;46331;49.252;8.904;2022-07-29T12:11:25;5.07;;;3.65;;
60488;SDS011;46331;49.252;8.904;2022-07-29T12:13:51;5.43;;;4.00;;
60488;SDS011;46331;49.252;8.904;2022-07-29T12:16:19;7.10;;;4.20;;
60488;SDS011;46331;49.252;8.904;2022-07-29T12:18:58;5.20;;;3.60;;
60488;SDS011;46331;49.252;8.904;2022-07-29T12:21:25;5.70;;;3.85;;
60488;SDS011;46331;49.252;8.904;2022-07-29T12:23:52;6.68;;;4.30;;
60488;SDS011;46331;49.252;8.904;2022-07-29T12:26:19;6.18;;;3.95;;
60488;SDS011;46331;49.252;8.904;2022-07-29T12:28:45;6.30;;;4.05;;
60488;SDS011;46331;49.252;8.904;2022-07-29T12:31:12;5.68;;;4.47;;
60488;SDS011;46331;49.252;8.904;2022-07-29T12:33:39;5.47;;;4.05;;
60488;SDS011;46331;49.252;8.904;2022-07-29T12:36:05;6.00;;;4.00;;
60488;SDS011;46331;49.252;8.904;2022-07-29T12:38:31;4.82;;;3.80;;
60488;SDS011;46331;49.252;8.904;2022-07-29T12:40:57;5.90;;;4.10;;
60488;SDS011;46331;49.252;8.904;2022-07-29T12:43:23;8.02;;;4.28;;
60488;SDS011;46331;49.252;8.904;2022-07-29T12:45:50;5.07;;;3.47;;
60488;SDS011;46331;49.252;8.904;2022-07-29T12:48:32;6.28;;;4.05;;
60488;SDS011;46331;49.252;8.904;2022-07-29T12:51:02;5.88;;;3.92;;
60488;SDS011;46331;49.252;8.904;2022-07-29T12:53:29;5.10;;;3.72;;
60488;SDS011;46331;49.252;8.904;2022-07-29T12:55:56;6.38;;;3.92;;
60488;SDS011;46331;49.252;8.904;2022-07-29T13:01:09;4.82;;;3.63;;
60488;SDS011;46331;49.252;8.904;2022-07-29T13:03:54;4.85;;;3.55;;
60488;SDS011;46331;49.252;8.904;2022-07-29T13:09:22;4.60;;;3.30;;
60488;SDS011;46331;49.252;8.904;2022-07-29T13:11:50;4.28;;;3.40;;
60488;SDS011;46331;49.252;8.904;2022-07-29T13:17:00;6.40;;;3.70;;
60488;SDS011;46331;49.252;8.904;2022-07-29T13:19:34;5.20;;;3.60;;
60488;SDS011;46331;49.252;8.904;2022-07-29T13:22:11;5.55;;;3.80;;
60488;SDS011;46331;49.252;8.904;2022-07-29T13:27:17;5.18;;;3.67;;
60488;SDS011;46331;49.252;8.904;2022-07-29T13:29:44;5.40;;;3.38;;
60488;SDS011;46331;49.252;8.904;2022-07-29T13:32:10;5.28;;;3.70;;
60488;SDS011;46331;49.252;8.904;2022-07-29T13:34:37;5.45;;;3.80;;
60488;SDS011;46331;49.252;8.904;2022-07-29T13:37:02;6.03;;;3.58;;
60488;SDS011;46331;49.252;8.904;2022-07-29T13:39:28;6.25;;;3.75;;
60488;SDS011;46331;49.252;8.904;2022-07-29T13:41:54;5.43;;;3.80;;
60488;SDS011;46331;49.252;8.904;2022-07-29T13:44:19;5.22;;;3.67;;
60488;SDS011;46331;49.252;8.904;2022-07-29T13:46:45;6.15;;;3.72;;
60488;SDS011;46331;49.252;8.904;2022-07-29T13:49:11;6.15;;;3.50;;
60488;SDS011;46331;49.252;8.904;2022-07-29T13:51:36;7.30;;;3.90;;
60488;SDS011;46331;49.252;8.904;2022-07-29T13:54:03;5.35;;;3.70;;
60488;SDS011;46331;49.252;8.904;2022-07-29T13:56:28;6.07;;;3.83;;
60488;SDS011;46331;49.252;8.904;2022-07-29T13:58:54;4.97;;;3.70;;
60488;SDS011;46331;49.252;8.904;2022-07-29T14:01:20;5.45;;;3.53;;
60488;SDS011;46331;49.252;8.904;2022-07-29T14:03:45;5.32;;;3.58;;
60488;SDS011;46331;49.252;8.904;2022-07-29T14:06:11;5.63;;;3.85;;
60488;SDS011;46331;49.252;8.904;2022-07-29T14:08:36;5.95;;;4.05;;
60488;SDS011;46331;49.252;8.904;2022-07-29T14:11:02;4.38;;;3.35;;
60488;SDS011;46331;49.252;8.904;2022-07-29T14:13:29;6.55;;;3.53;;
60488;SDS011;46331;49.252;8.904;2022-07-29T14:15:55;6.70;;;4.00;;
60488;SDS011;46331;49.252;8.904;2022-07-29T14:18:20;4.97;;;3.50;;
60488;SDS011;46331;49.252;8.904;2022-07-29T14:20:46;4.85;;;3.47;;
60488;SDS011;46331;49.252;8.904;2022-07-29T14:23:12;4.32;;;3.10;;
60488;SDS011;46331;49.252;8.904;2022-07-29T14:25:37;5.85;;;3.60;;
60488;SDS011;46331;49.252;8.904;2022-07-29T14:28:03;5.57;;;3.58;;
60488;SDS011;46331;49.252;8.904;2022-07-29T14:30:29;5.10;;;3.42;;
60488;SDS011;46331;49.252;8.904;2022-07-29T14:32:54;4.50;;;3.40;;
60488;SDS011;46331;49.252;8.904;2022-07-29T14:35:20;7.07;;;3.40;;
60488;SDS011;46331;49.252;8.904;2022-07-29T14:37:45;6.75;;;3.30;;
60488;SDS011;46331;49.252;8.904;2022-07-29T14:40:11;4.85;;;3.25;;
60488;SDS011;46331;49.252;8.904;2022-07-29T14:42:37;3.88;;;2.70;;
60488;SDS011;46331;49.252;8.904;2022-07-29T14:45:04;4.28;;;2.80;;
60488;SDS011;46331;49.252;8.904;2022-07-29T14:47:30;4.43;;;2.65;;
60488;SDS011;46331;49.252;8.904;2022-07-29T14:49:56;4.60;;;2.92;;
60488;SDS011;46331;49.252;8.904;2022-07-29T14:52:22;6.10;;;2.90;;
60488;SDS011;46331;49.252;8.904;2022-07-29T14:54:47;4.32;;;2.80;;
60488;SDS011;46331;49.252;8.904;2022-07-29T14:57:13;4.82;;;2.72;;
60488;SDS011;46331;49.252;8.904;2022-07-29T14:59:38;5.10;;;3.00;;
60488;SDS011;46331;49.252;8.904;2022-07-29T15:02:04;3.90;;;2.58;;
60488;SDS011;46331;49.252;8.904;2022-07-29T15:04:30;4.60;;;2.88;;
60488;SDS011;46331;49.252;8.904;2022-07-29T15:06:55;5.70;;;2.90;;
60488;SDS011;46331;49.252;8.904;2022-07-29T15:09:21;4.80;;;2.65;;
60488;SDS011;46331;49.252;8.904;2022-07-29T15:11:46;4.68;;;2.80;;
60488;SDS011;46331;49.252;8.904;2022-07-29T15:14:12;3.83;;;2.50;;
60488;SDS011;46331;49.252;8.904;2022-07-29T15:16:38;4.45;;;2.30;;
60488;SDS011;46331;49.252;8.904;2022-07-29T15:19:05;4.85;;;2.33;;
60488;SDS011;46331;49.252;8.904;2022-07-29T15:21:31;4.85;;;2.70;;
60488;SDS011;46331;49.252;8.904;2022-07-29T15:23:56;3.85;;;2.20;;
60488;SDS011;46331;49.252;8.904;2022-07-29T15:26:22;4.93;;;2.33;;
60488;SDS011;46331;49.252;8.904;2022-07-29T15:28:51;3.78;;;2.33;;
60488;SDS011;46331;49.252;8.904;2022-07-29T15:31:19;3.75;;;2.20;;
60488;SDS011;46331;49.252;8.904;2022-07-29T15:33:45;3.67;;;2.20;;
60488;SDS011;46331;49.252;8.904;2022-07-29T15:36:10;3.88;;;2.47;;
60488;SDS011;46331;49.252;8.904;2022-07-29T15:38:37;3.63;;;2.17;;
60488;SDS011;46331;49.252;8.904;2022-07-29T15:41:05;5.03;;;2.22;;
60488;SDS011;46331;49.252;8.904;2022-07-29T15:43:32;4.85;;;2.20;;